sensor_id;sensor_type;location;lat;lon;timestamp;pressure;altitude;pressure_sealevel;temperature;humidity
3260;BME280;68938;48.150;14.004;2023-04-23T00:00:41;97396.06;;;15.19;59.91
3260;BME280;68938;48.150;14.004;2023-04-23T00:03:10;97398.66;;;15.19;60.03
3260;BME280;68938;48.150;14.004;2023-04-23T00:05:42;97407.41;;;15.16;60.26
3260;BME280;68938;48.150;14.004;2023-04-23T00:08:10;97395.50;;;15.13;60.08
3260;BME280;68938;48.150;14.004;2023-04-23T00:10:38;97397.19;;;15.14;60.07
3260;BME280;68938;48.150;14.004;2023-04-23T00:13:05;97400.50;;;15.16;60.23
3260;BME280;68938;48.150;14.004;2023-04-23T00:15:32;97391.28;;;15.12;60.07
3260;BME280;68938;48.150;14.004;2023-04-23T00:18:00;97398.84;;;15.15;60.04
3260;BME280;68938;48.150;14.004;2023-04-23T00:20:26;97397.38;;;15.11;60.04
3260;BME280;68938;48.150;14.004;2023-04-23T00:22:53;97393.09;;;15.10;60.13
3260;BME280;68938;48.150;14.004;2023-04-23T00:25:20;97397.38;;;15.11;60.17
3260;BME280;68938;48.150;14.004;2023-04-23T00:27:47;97397.44;;;15.10;60.15
3260;BME280;68938;48.150;14.004;2023-04-23T00:30:14;97395.69;;;15.10;60.08
3260;BME280;68938;48.150;14.004;2023-04-23T00:32:41;97399.94;;;15.11;59.86
3260;BME280;68938;48.150;14.004;2023-04-23T00:35:08;97392.47;;;15.07;60.41
3260;BME280;68938;48.150;14.004;2023-04-23T00:37:36;97391.09;;;15.01;60.80
3260;BME280;68938;48.150;14.004;2023-04-23T00:40:03;97385.06;;;15.01;60.69
3260;BME280;68938;48.150;14.004;2023-04-23T00:42:31;97387.88;;;14.98;60.35
3260;BME280;68938;48.150;14.004;2023-04-23T00:44:59;97386.75;;;15.02;60.22
3260;BME280;68938;48.150;14.004;2023-04-23T00:47:28;97391.81;;;15.03;60.37
3260;BME280;68938;48.150;14.004;2023-04-23T00:49:55;97395.31;;;15.02;60.42
3260;BME280;68938;48.150;14.004;2023-04-23T00:52:23;97398.38;;;14.95;60.74
3260;BME280;68938;48.150;14.004;2023-04-23T00:54:50;97403.72;;;14.91;60.91
3260;BME280;68938;48.150;14.004;2023-04-23T00:57:17;97404.63;;;14.90;61.02
3260;BME280;68938;48.150;14.004;2023-04-23T00:59:44;97416.81;;;14.88;61.15
3260;BME280;68938;48.150;14.004;2023-04-23T01:02:12;97415.50;;;14.81;61.55
3260;BME280;68938;48.150;14.004;2023-04-23T01:04:42;97411.03;;;14.69;62.26
3260;BME280;68938;48.150;14.004;2023-04-23T01:07:13;97421.16;;;14.58;63.02
3260;BME280;68938;48.150;14.004;2023-04-23T01:09:40;97412.94;;;14.51;62.68
3260;BME280;68938;48.150;14.004;2023-04-23T01:12:08;97414.53;;;14.54;62.47
3260;BME280;68938;48.150;14.004;2023-04-23T01:14:37;97422.00;;;14.58;62.41
3260;BME280;68938;48.150;14.004;2023-04-23T01:17:04;97427.75;;;14.48;62.59
3260;BME280;68938;48.150;14.004;2023-04-23T01:19:31;97424.59;;;14.42;63.00
3260;BME280;68938;48.150;14.004;2023-04-23T01:21:59;97404.22;;;14.38;62.56
3260;BME280;68938;48.150;14.004;2023-04-23T01:24:28;97415.53;;;14.51;61.96
3260;BME280;68938;48.150;14.004;2023-04-23T01:26:55;97413.38;;;14.43;62.41
3260;BME280;68938;48.150;14.004;2023-04-23T01:29:22;97409.84;;;14.44;61.98
3260;BME280;68938;48.150;14.004;2023-04-23T01:31:50;97403.88;;;14.44;61.53
3260;BME280;68938;48.150;14.004;2023-04-23T01:34:18;97427.00;;;14.45;61.91
3260;BME280;68938;48.150;14.004;2023-04-23T01:36:46;97428.34;;;14.37;62.13
3260;BME280;68938;48.150;14.004;2023-04-23T01:39:14;97423.53;;;14.31;62.47
3260;BME280;68938;48.150;14.004;2023-04-23T01:41:41;97420.69;;;14.35;62.17
3260;BME280;68938;48.150;14.004;2023-04-23T01:44:09;97430.47;;;14.30;62.29
3260;BME280;68938;48.150;14.004;2023-04-23T01:46:36;97422.06;;;14.27;62.08
3260;BME280;68938;48.150;14.004;2023-04-23T01:49:03;97435.63;;;14.30;62.13
3260;BME280;68938;48.150;14.004;2023-04-23T01:51:30;97435.63;;;14.30;61.99
3260;BME280;68938;48.150;14.004;2023-04-23T01:53:57;97433.03;;;14.30;61.92
3260;BME280;68938;48.150;14.004;2023-04-23T01:56:26;97432.94;;;14.32;61.84
3260;BME280;68938;48.150;14.004;2023-04-23T01:58:54;97416.78;;;14.28;61.69
3260;BME280;68938;48.150;14.004;2023-04-23T02:01:21;97432.22;;;14.30;61.78
3260;BME280;68938;48.150;14.004;2023-04-23T02:03:49;97445.34;;;14.25;62.04
3260;BME280;68938;48.150;14.004;2023-04-23T02:06:16;97443.13;;;14.19;63.05
3260;BME280;68938;48.150;14.004;2023-04-23T02:08:43;97453.19;;;14.23;62.78
3260;BME280;68938;48.150;14.004;2023-04-23T02:11:10;97461.00;;;14.22;63.00
3260;BME280;68938;48.150;14.004;2023-04-23T02:13:37;97452.59;;;14.18;63.48
3260;BME280;68938;48.150;14.004;2023-04-23T02:16:04;97452.53;;;14.20;63.04
3260;BME280;68938;48.150;14.004;2023-04-23T02:18:32;97450.59;;;14.23;63.19
3260;BME280;68938;48.150;14.004;2023-04-23T02:20:59;97452.09;;;14.28;62.73
3260;BME280;68938;48.150;14.004;2023-04-23T02:23:25;97443.19;;;14.33;62.72
3260;BME280;68938;48.150;14.004;2023-04-23T02:25:52;97447.34;;;14.36;62.29
3260;BME280;68938;48.150;14.004;2023-04-23T02:28:19;97447.25;;;14.37;62.43
3260;BME280;68938;48.150;14.004;2023-04-23T02:30:46;97444.50;;;14.40;62.60
3260;BME280;68938;48.150;14.004;2023-04-23T02:33:13;97435.09;;;14.39;62.56
3260;BME280;68938;48.150;14.004;2023-04-23T02:35:40;97445.06;;;14.45;62.74
3260;BME280;68938;48.150;14.004;2023-04-23T02:38:07;97443.91;;;14.51;62.26
3260;BME280;68938;48.150;14.004;2023-04-23T02:40:34;97436.72;;;14.56;62.15
3260;BME280;68938;48.150;14.004;2023-04-23T02:43:01;97445.72;;;14.49;62.59
3260;BME280;68938;48.150;14.004;2023-04-23T02:45:27;97437.00;;;14.52;62.47
3260;BME280;68938;48.150;14.004;2023-04-23T02:47:54;97446.81;;;14.61;62.10
3260;BME280;68938;48.150;14.004;2023-04-23T02:50:21;97439.06;;;14.61;61.92
3260;BME280;68938;48.150;14.004;2023-04-23T02:52:48;97444.94;;;14.63;62.08
3260;BME280;68938;48.150;14.004;2023-04-23T02:55:15;97433.16;;;14.59;61.82
3260;BME280;68938;48.150;14.004;2023-04-23T02:57:42;97443.59;;;14.72;61.69
3260;BME280;68938;48.150;14.004;2023-04-23T03:00:09;97429.94;;;14.69;61.83
3260;BME280;68938;48.150;14.004;2023-04-23T03:02:37;97438.91;;;14.78;61.95
3260;BME280;68938;48.150;14.004;2023-04-23T03:05:04;97437.16;;;14.79;61.93
3260;BME280;68938;48.150;14.004;2023-04-23T03:07:31;97438.63;;;14.83;61.53
3260;BME280;68938;48.150;14.004;2023-04-23T03:09:58;97433.75;;;14.78;61.55
3260;BME280;68938;48.150;14.004;2023-04-23T03:12:25;97433.22;;;14.87;61.39
3260;BME280;68938;48.150;14.004;2023-04-23T03:14:52;97431.53;;;14.86;61.30
3260;BME280;68938;48.150;14.004;2023-04-23T03:17:19;97427.97;;;14.89;61.21
3260;BME280;68938;48.150;14.004;2023-04-23T03:19:46;97432.19;;;14.90;61.47
3260;BME280;68938;48.150;14.004;2023-04-23T03:22:13;97428.13;;;14.86;61.84
3260;BME280;68938;48.150;14.004;2023-04-23T03:24:40;97424.06;;;14.82;61.33
3260;BME280;68938;48.150;14.004;2023-04-23T03:27:07;97433.78;;;14.92;61.10
3260;BME280;68938;48.150;14.004;2023-04-23T03:29:34;97438.00;;;14.93;60.99
3260;BME280;68938;48.150;14.004;2023-04-23T03:32:01;97434.34;;;14.98;61.04
3260;BME280;68938;48.150;14.004;2023-04-23T03:34:28;97429.25;;;14.96;60.84
3260;BME280;68938;48.150;14.004;2023-04-23T03:36:54;97431.75;;;14.98;60.87
3260;BME280;68938;48.150;14.004;2023-04-23T03:39:21;97433.25;;;15.02;60.60
3260;BME280;68938;48.150;14.004;2023-04-23T03:41:48;97421.16;;;15.02;60.36
3260;BME280;68938;48.150;14.004;2023-04-23T03:44:15;97433.72;;;15.08;60.30
3260;BME280;68938;48.150;14.004;2023-04-23T03:46:42;97437.66;;;15.14;60.09
3260;BME280;68938;48.150;14.004;2023-04-23T03:49:09;97433.25;;;15.16;60.06
3260;BME280;68938;48.150;14.004;2023-04-23T03:51:36;97437.22;;;15.22;59.84
3260;BME280;68938;48.150;14.004;2023-04-23T03:54:03;97442.22;;;15.25;59.64
3260;BME280;68938;48.150;14.004;2023-04-23T03:56:30;97439.41;;;15.28;59.77
3260;BME280;68938;48.150;14.004;2023-04-23T03:58:57;97440.16;;;15.30;59.67
3260;BME280;68938;48.150;14.004;2023-04-23T04:01:23;97427.53;;;15.25;59.44
3260;BME280;68938;48.150;14.004;2023-04-23T04:03:50;97432.22;;;15.33;59.65
3260;BME280;68938;48.150;14.004;2023-04-23T04:06:18;97434.72;;;15.34;59.52
3260;BME280;68938;48.150;14.004;2023-04-23T04:08:45;97433.88;;;15.34;59.43
3260;BME280;68938;48.150;14.004;2023-04-23T04:11:12;97426.88;;;15.36;59.58
3260;BME280;68938;48.150;14.004;2023-04-23T04:13:39;97430.13;;;15.39;59.36
3260;BME280;68938;48.150;14.004;2023-04-23T04:16:06;97422.53;;;15.36;59.44
3260;BME280;68938;48.150;14.004;2023-04-23T04:18:33;97431.22;;;15.35;59.95
3260;BME280;68938;48.150;14.004;2023-04-23T04:21:00;97425.19;;;15.35;60.66
3260;BME280;68938;48.150;14.004;2023-04-23T04:23:28;97420.03;;;15.35;60.04
3260;BME280;68938;48.150;14.004;2023-04-23T04:25:55;97423.38;;;15.37;60.31
3260;BME280;68938;48.150;14.004;2023-04-23T04:28:22;97435.09;;;15.43;60.20
3260;BME280;68938;48.150;14.004;2023-04-23T04:30:49;97416.63;;;15.34;60.19
3260;BME280;68938;48.150;14.004;2023-04-23T04:33:18;97435.75;;;15.46;60.15
3260;BME280;68938;48.150;14.004;2023-04-23T04:35:46;97426.13;;;15.34;60.83
3260;BME280;68938;48.150;14.004;2023-04-23T04:38:12;97428.72;;;15.34;60.72
3260;BME280;68938;48.150;14.004;2023-04-23T04:40:39;97439.34;;;15.44;60.75
3260;BME280;68938;48.150;14.004;2023-04-23T04:43:06;97441.91;;;15.44;61.07
3260;BME280;68938;48.150;14.004;2023-04-23T04:45:33;97442.84;;;15.43;61.17
3260;BME280;68938;48.150;14.004;2023-04-23T04:48:00;97436.75;;;15.44;61.05
3260;BME280;68938;48.150;14.004;2023-04-23T04:50:27;97451.78;;;15.51;61.03
3260;BME280;68938;48.150;14.004;2023-04-23T04:52:54;97436.00;;;15.56;60.87
3260;BME280;68938;48.150;14.004;2023-04-23T04:55:21;97442.34;;;15.64;60.53
3260;BME280;68938;48.150;14.004;2023-04-23T04:57:48;97447.28;;;15.69;60.77
3260;BME280;68938;48.150;14.004;2023-04-23T05:00:23;97445.25;;;15.74;60.68
3260;BME280;68938;48.150;14.004;2023-04-23T05:02:51;97449.78;;;15.71;60.56
3260;BME280;68938;48.150;14.004;2023-04-23T05:05:21;97450.22;;;15.77;60.49
3260;BME280;68938;48.150;14.004;2023-04-23T05:07:49;97451.69;;;15.81;60.60
3260;BME280;68938;48.150;14.004;2023-04-23T05:10:16;97455.56;;;15.88;60.43
3260;BME280;68938;48.150;14.004;2023-04-23T05:12:43;97456.94;;;15.94;60.00
3260;BME280;68938;48.150;14.004;2023-04-23T05:15:11;97462.44;;;16.02;60.31
3260;BME280;68938;48.150;14.004;2023-04-23T05:17:40;97454.31;;;16.08;60.00
3260;BME280;68938;48.150;14.004;2023-04-23T05:20:08;97460.56;;;16.19;59.52
3260;BME280;68938;48.150;14.004;2023-04-23T05:22:40;97457.66;;;16.23;58.83
3260;BME280;68938;48.150;14.004;2023-04-23T05:25:09;97469.50;;;16.27;58.77
3260;BME280;68938;48.150;14.004;2023-04-23T05:27:38;97468.47;;;16.30;58.62
3260;BME280;68938;48.150;14.004;2023-04-23T05:30:07;97474.91;;;16.37;58.77
3260;BME280;68938;48.150;14.004;2023-04-23T05:32:35;97471.28;;;16.40;58.36
3260;BME280;68938;48.150;14.004;2023-04-23T05:35:03;97462.13;;;16.48;58.27
3260;BME280;68938;48.150;14.004;2023-04-23T05:37:31;97467.03;;;16.66;58.84
3260;BME280;68938;48.150;14.004;2023-04-23T05:39:58;97463.75;;;16.76;57.99
3260;BME280;68938;48.150;14.004;2023-04-23T05:42:25;97461.41;;;16.86;57.39
3260;BME280;68938;48.150;14.004;2023-04-23T05:44:52;97471.69;;;17.00;56.88
3260;BME280;68938;48.150;14.004;2023-04-23T05:47:18;97464.31;;;17.07;56.38
3260;BME280;68938;48.150;14.004;2023-04-23T05:49:45;97463.28;;;17.10;55.46
3260;BME280;68938;48.150;14.004;2023-04-23T05:52:12;97471.69;;;17.13;55.61
3260;BME280;68938;48.150;14.004;2023-04-23T05:54:40;97474.78;;;17.18;55.12
3260;BME280;68938;48.150;14.004;2023-04-23T05:57:08;97469.81;;;17.28;54.82
3260;BME280;68938;48.150;14.004;2023-04-23T05:59:35;97464.31;;;17.33;54.82
3260;BME280;68938;48.150;14.004;2023-04-23T06:02:02;97466.59;;;17.37;54.81
3260;BME280;68938;48.150;14.004;2023-04-23T06:04:29;97469.81;;;17.41;54.36
3260;BME280;68938;48.150;14.004;2023-04-23T06:06:57;97462.88;;;17.41;54.94
3260;BME280;68938;48.150;14.004;2023-04-23T06:09:24;97464.44;;;17.44;54.59
3260;BME280;68938;48.150;14.004;2023-04-23T06:11:52;97471.88;;;17.48;54.06
3260;BME280;68938;48.150;14.004;2023-04-23T06:14:19;97465.66;;;17.51;54.60
3260;BME280;68938;48.150;14.004;2023-04-23T06:16:46;97471.75;;;17.50;55.35
3260;BME280;68938;48.150;14.004;2023-04-23T06:19:13;97473.13;;;17.43;55.13
3260;BME280;68938;48.150;14.004;2023-04-23T06:21:40;97488.47;;;17.46;55.19
3260;BME280;68938;48.150;14.004;2023-04-23T06:24:07;97478.41;;;17.54;55.67
3260;BME280;68938;48.150;14.004;2023-04-23T06:26:34;97474.75;;;17.57;56.14
3260;BME280;68938;48.150;14.004;2023-04-23T06:29:01;97483.28;;;17.71;55.81
3260;BME280;68938;48.150;14.004;2023-04-23T06:31:27;97486.69;;;17.85;55.54
3260;BME280;68938;48.150;14.004;2023-04-23T06:33:55;97479.81;;;17.96;54.40
3260;BME280;68938;48.150;14.004;2023-04-23T06:36:21;97460.28;;;18.04;53.80
3260;BME280;68938;48.150;14.004;2023-04-23T06:38:48;97481.59;;;18.20;53.89
3260;BME280;68938;48.150;14.004;2023-04-23T06:41:15;97476.06;;;18.24;53.15
3260;BME280;68938;48.150;14.004;2023-04-23T06:43:42;97485.38;;;18.40;53.26
3260;BME280;68938;48.150;14.004;2023-04-23T06:46:09;97480.72;;;18.56;52.43
3260;BME280;68938;48.150;14.004;2023-04-23T06:48:36;97484.47;;;18.76;51.47
3260;BME280;68938;48.150;14.004;2023-04-23T06:51:03;97484.03;;;18.82;50.26
3260;BME280;68938;48.150;14.004;2023-04-23T06:53:30;97481.84;;;19.00;50.66
3260;BME280;68938;48.150;14.004;2023-04-23T06:55:57;97483.53;;;19.12;49.94
3260;BME280;68938;48.150;14.004;2023-04-23T06:58:24;97482.13;;;19.31;49.80
3260;BME280;68938;48.150;14.004;2023-04-23T07:00:51;97478.47;;;19.45;49.06
3260;BME280;68938;48.150;14.004;2023-04-23T07:03:18;97473.16;;;19.57;48.89
3260;BME280;68938;48.150;14.004;2023-04-23T07:05:45;97467.22;;;19.55;47.23
3260;BME280;68938;48.150;14.004;2023-04-23T07:08:12;97468.44;;;19.62;46.92
3260;BME280;68938;48.150;14.004;2023-04-23T07:10:39;97466.91;;;19.71;46.54
3260;BME280;68938;48.150;14.004;2023-04-23T07:13:06;97467.75;;;19.83;46.34
3260;BME280;68938;48.150;14.004;2023-04-23T07:15:33;97471.75;;;19.98;46.00
3260;BME280;68938;48.150;14.004;2023-04-23T07:18:00;97472.81;;;20.07;46.39
3260;BME280;68938;48.150;14.004;2023-04-23T07:20:27;97466.34;;;20.22;46.20
3260;BME280;68938;48.150;14.004;2023-04-23T07:22:53;97462.44;;;20.28;47.08
3260;BME280;68938;48.150;14.004;2023-04-23T07:25:20;97446.44;;;20.32;45.91
3260;BME280;68938;48.150;14.004;2023-04-23T07:27:47;97446.97;;;20.47;46.44
3260;BME280;68938;48.150;14.004;2023-04-23T07:30:14;97453.81;;;20.59;46.05
3260;BME280;68938;48.150;14.004;2023-04-23T07:32:42;97457.19;;;20.71;45.44
3260;BME280;68938;48.150;14.004;2023-04-23T07:35:09;97450.09;;;20.73;43.61
3260;BME280;68938;48.150;14.004;2023-04-23T07:37:36;97458.88;;;20.93;43.94
3260;BME280;68938;48.150;14.004;2023-04-23T07:40:04;97450.72;;;21.08;43.40
3260;BME280;68938;48.150;14.004;2023-04-23T07:42:31;97444.03;;;21.15;42.76
3260;BME280;68938;48.150;14.004;2023-04-23T07:44:58;97452.41;;;21.39;42.27
3260;BME280;68938;48.150;14.004;2023-04-23T07:47:25;97454.16;;;21.60;41.36
3260;BME280;68938;48.150;14.004;2023-04-23T07:49:52;97454.63;;;21.74;41.30
3260;BME280;68938;48.150;14.004;2023-04-23T07:52:19;97450.53;;;21.82;40.90
3260;BME280;68938;48.150;14.004;2023-04-23T07:54:46;97461.56;;;21.95;40.17
3260;BME280;68938;48.150;14.004;2023-04-23T07:57:13;97447.41;;;22.07;39.96
3260;BME280;68938;48.150;14.004;2023-04-23T07:59:40;97452.16;;;22.23;38.62
3260;BME280;68938;48.150;14.004;2023-04-23T08:02:07;97452.72;;;22.27;39.12
3260;BME280;68938;48.150;14.004;2023-04-23T08:04:35;97455.19;;;22.47;38.98
3260;BME280;68938;48.150;14.004;2023-04-23T08:07:02;97447.47;;;22.46;38.62
3260;BME280;68938;48.150;14.004;2023-04-23T08:09:29;97445.97;;;22.34;39.23
3260;BME280;68938;48.150;14.004;2023-04-23T08:11:56;97443.66;;;22.50;38.31
3260;BME280;68938;48.150;14.004;2023-04-23T08:14:22;97449.69;;;22.41;38.71
3260;BME280;68938;48.150;14.004;2023-04-23T08:16:49;97454.38;;;22.47;39.19
3260;BME280;68938;48.150;14.004;2023-04-23T08:19:16;97449.44;;;22.63;39.23
3260;BME280;68938;48.150;14.004;2023-04-23T08:21:43;97452.84;;;22.74;38.80
3260;BME280;68938;48.150;14.004;2023-04-23T08:24:10;97449.00;;;22.87;39.12
3260;BME280;68938;48.150;14.004;2023-04-23T08:26:37;97453.81;;;23.02;39.63
3260;BME280;68938;48.150;14.004;2023-04-23T08:29:04;97446.66;;;22.94;39.19
3260;BME280;68938;48.150;14.004;2023-04-23T08:31:31;97454.22;;;22.87;39.58
3260;BME280;68938;48.150;14.004;2023-04-23T08:33:58;97450.66;;;22.98;40.06
3260;BME280;68938;48.150;14.004;2023-04-23T08:36:25;97448.16;;;23.06;39.62
3260;BME280;68938;48.150;14.004;2023-04-23T08:38:52;97442.75;;;23.17;39.21
3260;BME280;68938;48.150;14.004;2023-04-23T08:41:22;97446.31;;;23.26;38.13
3260;BME280;68938;48.150;14.004;2023-04-23T08:46:42;97442.63;;;23.56;37.77
3260;BME280;68938;48.150;14.004;2023-04-23T08:49:16;97440.31;;;23.44;36.21
3260;BME280;68938;48.150;14.004;2023-04-23T08:51:53;97435.13;;;23.71;37.23
3260;BME280;68938;48.150;14.004;2023-04-23T08:54:24;97434.22;;;23.90;37.99
3260;BME280;68938;48.150;14.004;2023-04-23T08:56:56;97425.41;;;24.09;37.64
3260;BME280;68938;48.150;14.004;2023-04-23T08:59:29;97435.06;;;24.08;37.08
3260;BME280;68938;48.150;14.004;2023-04-23T09:01:56;97424.66;;;24.17;36.07
3260;BME280;68938;48.150;14.004;2023-04-23T09:04:24;97430.13;;;24.23;35.92
3260;BME280;68938;48.150;14.004;2023-04-23T09:06:51;97414.28;;;24.43;36.66
3260;BME280;68938;48.150;14.004;2023-04-23T09:09:19;97431.78;;;24.60;35.54
3260;BME280;68938;48.150;14.004;2023-04-23T09:11:46;97417.78;;;24.69;35.39
3260;BME280;68938;48.150;14.004;2023-04-23T09:14:13;97419.88;;;24.66;35.39
3260;BME280;68938;48.150;14.004;2023-04-23T09:16:40;97416.66;;;24.72;35.69
3260;BME280;68938;48.150;14.004;2023-04-23T09:19:09;97426.19;;;24.55;35.49
3260;BME280;68938;48.150;14.004;2023-04-23T09:21:38;97417.75;;;24.16;36.29
3260;BME280;68938;48.150;14.004;2023-04-23T09:24:05;97422.72;;;24.19;36.98
3260;BME280;68938;48.150;14.004;2023-04-23T09:26:43;97428.72;;;24.29;36.92
3260;BME280;68938;48.150;14.004;2023-04-23T09:29:19;97426.84;;;24.21;36.05
3260;BME280;68938;48.150;14.004;2023-04-23T09:31:48;97422.66;;;24.10;37.38
3260;BME280;68938;48.150;14.004;2023-04-23T09:34:18;97422.84;;;23.99;37.66
3260;BME280;68938;48.150;14.004;2023-04-23T09:36:48;97413.34;;;23.98;38.31
3260;BME280;68938;48.150;14.004;2023-04-23T09:39:18;97416.00;;;23.88;38.20
3260;BME280;68938;48.150;14.004;2023-04-23T09:41:50;97413.16;;;23.82;38.50
3260;BME280;68938;48.150;14.004;2023-04-23T09:44:19;97414.59;;;23.76;38.55
3260;BME280;68938;48.150;14.004;2023-04-23T09:46:47;97412.41;;;23.89;38.16
3260;BME280;68938;48.150;14.004;2023-04-23T09:49:14;97395.22;;;23.87;37.68
3260;BME280;68938;48.150;14.004;2023-04-23T09:51:43;97400.06;;;23.82;39.39
3260;BME280;68938;48.150;14.004;2023-04-23T09:54:19;97398.88;;;23.76;39.15
3260;BME280;68938;48.150;14.004;2023-04-23T09:56:52;97398.31;;;24.00;38.76
3260;BME280;68938;48.150;14.004;2023-04-23T10:02:03;97392.13;;;23.74;38.82
3260;BME280;68938;48.150;14.004;2023-04-23T10:04:32;97400.34;;;23.79;39.02
3260;BME280;68938;48.150;14.004;2023-04-23T10:07:02;97405.81;;;23.85;38.85
3260;BME280;68938;48.150;14.004;2023-04-23T10:09:45;97396.53;;;23.73;39.58
3260;BME280;68938;48.150;14.004;2023-04-23T10:12:13;97398.97;;;23.47;39.88
3260;BME280;68938;48.150;14.004;2023-04-23T10:14:45;97398.44;;;23.44;39.50
3260;BME280;68938;48.150;14.004;2023-04-23T10:17:12;97395.19;;;23.32;40.22
3260;BME280;68938;48.150;14.004;2023-04-23T10:19:39;97396.16;;;23.31;40.16
3260;BME280;68938;48.150;14.004;2023-04-23T10:22:09;97395.81;;;23.06;41.42
3260;BME280;68938;48.150;14.004;2023-04-23T10:24:41;97385.16;;;22.70;42.06
3260;BME280;68938;48.150;14.004;2023-04-23T10:27:14;97394.13;;;22.19;43.70
3260;BME280;68938;48.150;14.004;2023-04-23T10:30:04;97380.22;;;22.29;43.97
3260;BME280;68938;48.150;14.004;2023-04-23T10:32:32;97372.97;;;22.22;44.35
3260;BME280;68938;48.150;14.004;2023-04-23T10:35:00;97373.63;;;22.24;44.78
3260;BME280;68938;48.150;14.004;2023-04-23T10:37:27;97367.53;;;22.05;45.32
3260;BME280;68938;48.150;14.004;2023-04-23T10:40:02;97371.72;;;22.27;44.52
3260;BME280;68938;48.150;14.004;2023-04-23T10:42:42;97367.31;;;22.46;43.05
3260;BME280;68938;48.150;14.004;2023-04-23T10:45:16;97369.34;;;22.53;43.34
3260;BME280;68938;48.150;14.004;2023-04-23T10:47:47;97364.53;;;22.48;43.50
3260;BME280;68938;48.150;14.004;2023-04-23T10:52:44;97367.13;;;22.67;43.46
3260;BME280;68938;48.150;14.004;2023-04-23T10:55:16;97370.06;;;22.16;43.57
3260;BME280;68938;48.150;14.004;2023-04-23T10:58:03;97374.34;;;21.67;44.68
3260;BME280;68938;48.150;14.004;2023-04-23T11:12:00;97354.09;;;22.48;44.14
3260;BME280;68938;48.150;14.004;2023-04-23T11:14:48;97345.53;;;22.56;43.26
3260;BME280;68938;48.150;14.004;2023-04-23T11:17:20;97351.03;;;22.62;43.84
3260;BME280;68938;48.150;14.004;2023-04-23T11:20:14;97353.50;;;22.74;44.14
3260;BME280;68938;48.150;14.004;2023-04-23T11:22:46;97358.56;;;22.85;42.87
3260;BME280;68938;48.150;14.004;2023-04-23T11:25:25;97345.09;;;23.17;43.03
3260;BME280;68938;48.150;14.004;2023-04-23T11:27:55;97346.38;;;23.40;42.58
3260;BME280;68938;48.150;14.004;2023-04-23T11:30:27;97345.25;;;23.43;42.43
3260;BME280;68938;48.150;14.004;2023-04-23T11:32:56;97335.69;;;23.52;42.03
3260;BME280;68938;48.150;14.004;2023-04-23T11:35:24;97330.69;;;23.58;41.92
3260;BME280;68938;48.150;14.004;2023-04-23T11:37:53;97343.63;;;23.70;40.67
3260;BME280;68938;48.150;14.004;2023-04-23T11:40:20;97332.53;;;23.76;41.15
3260;BME280;68938;48.150;14.004;2023-04-23T11:42:53;97317.81;;;23.75;40.16
3260;BME280;68938;48.150;14.004;2023-04-23T11:45:23;97327.78;;;23.61;41.99
3260;BME280;68938;48.150;14.004;2023-04-23T11:47:54;97326.25;;;23.41;41.77
3260;BME280;68938;48.150;14.004;2023-04-23T11:50:30;97319.13;;;23.61;42.00
3260;BME280;68938;48.150;14.004;2023-04-23T11:53:05;97313.56;;;23.18;42.86
3260;BME280;68938;48.150;14.004;2023-04-23T11:55:33;97309.81;;;22.93;43.92
3260;BME280;68938;48.150;14.004;2023-04-23T11:58:01;97311.81;;;23.09;43.73
3260;BME280;68938;48.150;14.004;2023-04-23T12:00:28;97307.84;;;23.33;42.68
3260;BME280;68938;48.150;14.004;2023-04-23T12:02:56;97309.28;;;23.45;42.46
3260;BME280;68938;48.150;14.004;2023-04-23T12:05:40;97314.41;;;23.19;42.92
3260;BME280;68938;48.150;14.004;2023-04-23T12:08:11;97311.50;;;22.75;44.13
3260;BME280;68938;48.150;14.004;2023-04-23T12:10:54;97303.59;;;22.47;44.33
3260;BME280;68938;48.150;14.004;2023-04-23T12:13:28;97302.41;;;22.79;44.39
3260;BME280;68938;48.150;14.004;2023-04-23T12:16:01;97301.88;;;23.13;42.55
3260;BME280;68938;48.150;14.004;2023-04-23T12:18:32;97298.94;;;22.88;43.13
3260;BME280;68938;48.150;14.004;2023-04-23T12:21:13;97283.97;;;22.81;43.07
3260;BME280;68938;48.150;14.004;2023-04-23T12:23:41;97285.06;;;22.78;43.25
3260;BME280;68938;48.150;14.004;2023-04-23T12:26:15;97285.09;;;23.15;43.05
3260;BME280;68938;48.150;14.004;2023-04-23T12:29:00;97287.38;;;23.46;42.55
3260;BME280;68938;48.150;14.004;2023-04-23T12:31:28;97272.63;;;23.45;42.46
3260;BME280;68938;48.150;14.004;2023-04-23T12:36:28;97268.53;;;23.60;42.92
3260;BME280;68938;48.150;14.004;2023-04-23T12:39:25;97262.34;;;23.79;41.80
3260;BME280;68938;48.150;14.004;2023-04-23T12:42:05;97258.03;;;23.88;41.63
3260;BME280;68938;48.150;14.004;2023-04-23T12:44:34;97254.34;;;23.99;40.69
3260;BME280;68938;48.150;14.004;2023-04-23T12:47:08;97242.56;;;24.03;40.75
3260;BME280;68938;48.150;14.004;2023-04-23T12:49:38;97254.81;;;24.20;40.15
3260;BME280;68938;48.150;14.004;2023-04-23T12:52:07;97249.44;;;24.22;39.43
3260;BME280;68938;48.150;14.004;2023-04-23T12:54:39;97245.81;;;24.41;39.20
3260;BME280;68938;48.150;14.004;2023-04-23T12:57:09;97244.06;;;24.49;38.86
3260;BME280;68938;48.150;14.004;2023-04-23T12:59:37;97239.16;;;24.54;38.29
3260;BME280;68938;48.150;14.004;2023-04-23T13:02:04;97229.38;;;24.65;38.11
3260;BME280;68938;48.150;14.004;2023-04-23T13:04:33;97226.91;;;24.55;39.09
3260;BME280;68938;48.150;14.004;2023-04-23T13:07:02;97226.91;;;24.37;39.02
3260;BME280;68938;48.150;14.004;2023-04-23T13:09:29;97224.31;;;24.63;38.00
3260;BME280;68938;48.150;14.004;2023-04-23T13:11:56;97215.22;;;24.83;37.97
3260;BME280;68938;48.150;14.004;2023-04-23T13:14:23;97212.66;;;25.00;37.75
3260;BME280;68938;48.150;14.004;2023-04-23T13:16:50;97215.03;;;25.19;37.38
3260;BME280;68938;48.150;14.004;2023-04-23T13:19:17;97201.84;;;25.03;36.84
3260;BME280;68938;48.150;14.004;2023-04-23T13:21:44;97189.16;;;24.82;37.33
3260;BME280;68938;48.150;14.004;2023-04-23T13:24:11;97195.88;;;24.85;36.58
3260;BME280;68938;48.150;14.004;2023-04-23T13:26:38;97189.78;;;25.26;36.00
3260;BME280;68938;48.150;14.004;2023-04-23T13:29:05;97177.47;;;25.43;35.39